Time;durP1;ratioP1;P1;durP2;ratioP2;P2;SDS_P1;SDS_P2;PMS_P1;PMS_P2;Temp;Humidity;BMP_temperature;BMP_pressure;BME280_temperature;BME280_humidity;BME280_pressure;Samples;Min_cycle;Max_cycle;Signal;HPM_P1;HPM_P2
2023/01/30 00:02:00;;;;;;;8.53;3.33;;;;;;;;;;5018496;28;20216;-89
2023/01/30 00:04:30;;;;;;;5.83;3.53;;;;;;;;;;5018700;28;20208;-90
2023/01/30 00:06:58;;;;;;;10.73;3.83;;;;;;;;;;5018672;28;20210;-89
2023/01/30 00:09:27;;;;;;;13.20;5.77;;;;;;;;;;5036355;28;20318;-90
2023/01/30 00:11:55;;;;;;;8.33;3.03;;;;;;;;;;5018633;28;20237;-90
2023/01/30 00:14:24;;;;;;;7.03;2.60;;;;;;;;;;5017926;28;20207;-90
2023/01/30 00:16:52;;;;;;;9.13;4.13;;;;;;;;;;5036130;28;20217;-90
2023/01/30 00:19:20;;;;;;;9.87;2.97;;;;;;;;;;5018768;28;20204;-90
2023/01/30 00:21:50;;;;;;;11.07;4.80;;;;;;;;;;5018230;28;20207;-90
2023/01/30 00:24:18;;;;;;;3.97;1.93;;;;;;;;;;5018333;28;20208;-90
2023/01/30 00:26:47;;;;;;;8.77;3.70;;;;;;;;;;5017983;28;20223;-90
2023/01/30 00:29:16;;;;;;;23.83;5.03;;;;;;;;;;5018265;28;20208;-90
2023/01/30 00:31:44;;;;;;;7.03;3.67;;;;;;;;;;5035873;28;20209;-89
2023/01/30 00:34:12;;;;;;;12.70;5.27;;;;;;;;;;5035704;28;20204;-89
2023/01/30 00:36:41;;;;;;;8.70;3.50;;;;;;;;;;5018008;28;20211;-89
2023/01/30 00:39:11;;;;;;;9.77;3.17;;;;;;;;;;5035460;28;20203;-90
2023/01/30 00:47:11;;;;;;;10.60;3.93;;;;;;;;;;5017759;28;20190;-89
2023/01/30 00:49:39;;;;;;;7.90;3.80;;;;;;;;;;5017752;28;20228;-90
2023/01/30 00:52:07;;;;;;;8.60;4.37;;;;;;;;;;5034888;28;20231;-89
2023/01/30 00:54:37;;;;;;;10.90;3.23;;;;;;;;;;5017556;28;20284;-90
2023/01/30 00:57:06;;;;;;;8.93;2.93;;;;;;;;;;5017420;28;20277;-89
2023/01/30 00:59:34;;;;;;;8.67;3.50;;;;;;;;;;5017660;28;20195;-90
2023/01/30 01:02:02;;;;;;;11.37;3.77;;;;;;;;;;5017472;28;20254;-90
2023/01/30 01:04:31;;;;;;;6.20;2.30;;;;;;;;;;5017605;28;20273;-90
2023/01/30 01:07:10;;;;;;;6.00;3.10;;;;;;;;;;5033915;28;20205;-90
2023/01/30 01:09:40;;;;;;;6.97;2.43;;;;;;;;;;5015788;28;20259;-90
2023/01/30 01:12:09;;;;;;;10.67;3.53;;;;;;;;;;5015235;28;20207;-90
2023/01/30 01:14:37;;;;;;;10.47;3.00;;;;;;;;;;4997421;28;20211;-90
2023/01/30 01:17:06;;;;;;;9.07;4.30;;;;;;;;;;4997431;28;20315;-89
2023/01/30 01:19:34;;;;;;;16.10;6.43;;;;;;;;;;4998208;28;20257;-90
2023/01/30 01:22:02;;;;;;;8.23;3.00;;;;;;;;;;4997991;28;20201;-90
2023/01/30 01:24:31;;;;;;;17.17;5.07;;;;;;;;;;4997422;28;20212;-90
2023/01/30 01:27:01;;;;;;;7.63;3.33;;;;;;;;;;4996736;28;20198;-90
2023/01/30 01:29:29;;;;;;;11.73;3.13;;;;;;;;;;5014845;28;20200;-90
2023/01/30 01:31:58;;;;;;;10.40;3.60;;;;;;;;;;4997786;28;20200;-89
2023/01/30 01:34:26;;;;;;;8.20;4.07;;;;;;;;;;5014630;28;20201;-89
2023/01/30 01:36:55;;;;;;;9.23;3.50;;;;;;;;;;4997362;28;20207;-87
2023/01/30 01:39:23;;;;;;;4.63;2.70;;;;;;;;;;4997024;28;20207;-87
2023/01/30 01:41:51;;;;;;;8.23;3.83;;;;;;;;;;5014688;28;20201;-87
2023/01/30 01:44:21;;;;;;;15.23;5.80;;;;;;;;;;5014389;28;20212;-87
2023/01/30 01:46:50;;;;;;;12.43;4.93;;;;;;;;;;4996719;28;20204;-87
2023/01/30 01:49:22;;;;;;;24.50;6.93;;;;;;;;;;4996682;28;20208;-87
2023/01/30 01:51:53;;;;;;;15.00;6.07;;;;;;;;;;4996761;28;20197;-87
2023/01/30 01:54:23;;;;;;;12.70;4.43;;;;;;;;;;4997126;28;20251;-87
2023/01/30 01:56:52;;;;;;;17.83;7.93;;;;;;;;;;4996944;28;20205;-88
2023/01/30 01:59:25;;;;;;;10.03;4.80;;;;;;;;;;5014159;28;20207;-88
2023/01/30 02:01:55;;;;;;;11.80;3.70;;;;;;;;;;5014377;28;20223;-89
2023/01/30 02:07:08;;;;;;;12.23;4.77;;;;;;;;;;4996564;28;20274;-88
2023/01/30 02:09:37;;;;;;;17.33;4.37;;;;;;;;;;5015477;28;20231;-89
2023/01/30 02:12:06;;;;;;;13.17;4.07;;;;;;;;;;5016183;28;20207;-89
2023/01/30 02:14:36;;;;;;;22.83;6.90;;;;;;;;;;5016317;28;20225;-89
2023/01/30 02:17:05;;;;;;;8.37;3.90;;;;;;;;;;5033639;28;20233;-89
2023/01/30 02:19:35;;;;;;;11.10;4.33;;;;;;;;;;5016233;28;20198;-89
2023/01/30 02:22:18;;;;;;;7.53;2.67;;;;;;;;;;5016563;28;20207;-89
2023/01/30 02:24:57;;;;;;;9.67;3.80;;;;;;;;;;5016865;28;20214;-89
2023/01/30 02:27:39;;;;;;;11.47;4.10;;;;;;;;;;5016346;28;20299;-89
2023/01/30 02:30:13;;;;;;;11.80;5.03;;;;;;;;;;5016097;28;20219;-89
2023/01/30 02:32:46;;;;;;;8.83;3.27;;;;;;;;;;5016319;28;20199;-89
2023/01/30 02:35:19;;;;;;;10.17;4.17;;;;;;;;;;5033911;28;20200;-90
2023/01/30 02:37:50;;;;;;;17.43;5.83;;;;;;;;;;5034853;28;20227;-89
2023/01/30 02:40:27;;;;;;;20.43;6.70;;;;;;;;;;5020252;28;20203;-89
2023/01/30 02:43:02;;;;;;;12.57;5.63;;;;;;;;;;5020066;28;20200;-89
2023/01/30 02:45:33;;;;;;;23.97;5.03;;;;;;;;;;5019968;28;20207;-89
2023/01/30 02:48:04;;;;;;;12.63;5.80;;;;;;;;;;5020519;28;20195;-90
2023/01/30 02:50:35;;;;;;;10.80;4.13;;;;;;;;;;5020151;28;20200;-90
2023/01/30 02:53:05;;;;;;;16.23;6.80;;;;;;;;;;5020248;28;20195;-90
2023/01/30 02:55:34;;;;;;;12.33;4.37;;;;;;;;;;5019922;28;20197;-90
2023/01/30 02:58:04;;;;;;;14.10;4.43;;;;;;;;;;5037394;28;20220;-91
2023/01/30 03:00:41;;;;;;;11.83;4.07;;;;;;;;;;5019356;28;20200;-90
2023/01/30 03:03:30;;;;;;;20.17;5.03;;;;;;;;;;5037210;28;20220;-90
2023/01/30 03:06:06;;;;;;;8.53;3.47;;;;;;;;;;5015616;28;20195;-90
2023/01/30 03:08:39;;;;;;;13.97;3.50;;;;;;;;;;5019662;28;20231;-91
2023/01/30 03:11:09;;;;;;;8.53;2.77;;;;;;;;;;5019799;28;20235;-90
2023/01/30 03:13:44;;;;;;;10.10;3.20;;;;;;;;;;5037654;28;20199;-91
2023/01/30 03:16:14;;;;;;;6.57;3.27;;;;;;;;;;5037524;28;20202;-90
2023/01/30 03:18:43;;;;;;;8.80;4.40;;;;;;;;;;5019452;28;20235;-90
2023/01/30 03:21:13;;;;;;;23.53;5.60;;;;;;;;;;5019170;28;20207;-89
2023/01/30 03:23:41;;;;;;;8.37;3.63;;;;;;;;;;5019369;28;20200;-90
2023/01/30 03:26:11;;;;;;;9.43;3.60;;;;;;;;;;5019683;28;20262;-90
2023/01/30 03:28:40;;;;;;;12.80;3.70;;;;;;;;;;5019615;28;20199;-90
2023/01/30 03:31:09;;;;;;;17.70;3.80;;;;;;;;;;5019305;28;20231;-89
2023/01/30 03:33:37;;;;;;;10.83;3.73;;;;;;;;;;5019167;28;20201;-89
2023/01/30 03:36:06;;;;;;;9.37;2.93;;;;;;;;;;5036595;28;20238;-90
2023/01/30 03:38:36;;;;;;;15.70;2.90;;;;;;;;;;5019404;28;20217;-89
2023/01/30 03:41:06;;;;;;;9.73;4.10;;;;;;;;;;5019436;28;20195;-90
2023/01/30 03:43:34;;;;;;;12.37;3.17;;;;;;;;;;5036546;28;20209;-89
2023/01/30 03:46:02;;;;;;;9.43;4.57;;;;;;;;;;5018976;28;20208;-90
2023/01/30 03:48:31;;;;;;;13.63;3.93;;;;;;;;;;5035954;28;20199;-89
2023/01/30 03:50:59;;;;;;;8.57;3.77;;;;;;;;;;5018895;28;20250;-89
2023/01/30 03:53:28;;;;;;;9.47;3.33;;;;;;;;;;5018633;28;20200;-90
2023/01/30 03:55:58;;;;;;;8.23;3.57;;;;;;;;;;5018865;28;20202;-90
2023/01/30 03:58:26;;;;;;;19.27;4.07;;;;;;;;;;5019032;28;20227;-89
2023/01/30 04:00:56;;;;;;;11.60;4.17;;;;;;;;;;5018905;28;20290;-90
2023/01/30 04:03:24;;;;;;;9.50;3.50;;;;;;;;;;5036256;28;20224;-90
2023/01/30 04:05:53;;;;;;;10.00;4.57;;;;;;;;;;5037037;28;20258;-89
2023/01/30 04:08:21;;;;;;;10.37;5.47;;;;;;;;;;5018178;28;20243;-90
2023/01/30 04:10:50;;;;;;;15.40;5.40;;;;;;;;;;5035684;28;20259;-90
2023/01/30 04:13:20;;;;;;;14.03;4.27;;;;;;;;;;5018753;28;20234;-90
2023/01/30 04:15:48;;;;;;;9.67;4.17;;;;;;;;;;5035601;28;20199;-90
2023/01/30 04:18:16;;;;;;;11.07;4.20;;;;;;;;;;5018096;28;20203;-89
2023/01/30 04:20:45;;;;;;;7.93;2.80;;;;;;;;;;5017733;28;20196;-90
2023/01/30 04:23:14;;;;;;;13.03;4.47;;;;;;;;;;5018487;28;20204;-90
2023/01/30 04:25:42;;;;;;;9.13;2.97;;;;;;;;;;5035609;28;20203;-89
2023/01/30 04:28:11;;;;;;;6.80;2.67;;;;;;;;;;5035564;28;20205;-89
2023/01/30 04:30:41;;;;;;;12.07;4.33;;;;;;;;;;5035601;28;20207;-89
2023/01/30 04:33:09;;;;;;;9.53;3.57;;;;;;;;;;5018401;28;20200;-90
2023/01/30 04:35:37;;;;;;;14.83;4.43;;;;;;;;;;5018083;28;20226;-89
2023/01/30 04:38:06;;;;;;;13.53;4.23;;;;;;;;;;5018283;28;20200;-90
2023/01/30 04:40:34;;;;;;;9.90;3.23;;;;;;;;;;5017789;28;20219;-90
2023/01/30 04:43:03;;;;;;;13.10;5.60;;;;;;;;;;5035303;28;20234;-90
2023/01/30 04:45:31;;;;;;;7.17;2.40;;;;;;;;;;5018310;28;20257;-90
2023/01/30 04:48:01;;;;;;;11.67;6.33;;;;;;;;;;5034281;28;20206;-90
2023/01/30 04:50:29;;;;;;;5.83;2.80;;;;;;;;;;5017708;28;20196;-90
2023/01/30 04:52:57;;;;;;;19.27;4.77;;;;;;;;;;5035415;28;20199;-90
2023/01/30 04:55:26;;;;;;;13.07;3.87;;;;;;;;;;5017531;28;20297;-90
2023/01/30 04:57:54;;;;;;;6.97;3.57;;;;;;;;;;5017451;28;20207;-89
2023/01/30 05:00:23;;;;;;;18.33;4.50;;;;;;;;;;5016736;28;20212;-90
2023/01/30 05:02:51;;;;;;;19.80;4.73;;;;;;;;;;5035022;28;20219;-89
2023/01/30 05:05:21;;;;;;;11.03;3.53;;;;;;;;;;5017093;28;20210;-90
2023/01/30 05:07:50;;;;;;;8.97;3.33;;;;;;;;;;5032930;28;20242;-90
2023/01/30 05:10:19;;;;;;;15.37;5.83;;;;;;;;;;4997416;28;20203;-90
2023/01/30 05:12:47;;;;;;;9.03;3.47;;;;;;;;;;4997630;28;20254;-90
2023/01/30 05:15:16;;;;;;;7.97;2.63;;;;;;;;;;5014845;28;20231;-90
2023/01/30 05:17:45;;;;;;;16.53;3.73;;;;;;;;;;5014766;28;20201;-89
2023/01/30 05:20:14;;;;;;;13.47;3.97;;;;;;;;;;4997669;28;20278;-90
2023/01/30 05:22:44;;;;;;;15.37;5.00;;;;;;;;;;5015310;28;20193;-89
2023/01/30 05:25:12;;;;;;;15.30;4.87;;;;;;;;;;4997409;28;20207;-89
2023/01/30 05:27:40;;;;;;;10.20;3.20;;;;;;;;;;4997453;28;20216;-90
2023/01/30 05:30:10;;;;;;;9.93;3.60;;;;;;;;;;4997401;28;20247;-89
2023/01/30 05:32:38;;;;;;;9.67;3.87;;;;;;;;;;4997543;28;20211;-89
2023/01/30 05:35:07;;;;;;;7.97;2.70;;;;;;;;;;4997040;28;20203;-90
2023/01/30 05:37:36;;;;;;;20.80;5.27;;;;;;;;;;4997616;28;20200;-89
2023/01/30 05:40:07;;;;;;;10.97;5.03;;;;;;;;;;5014601;28;20221;-89
2023/01/30 05:42:35;;;;;;;12.43;2.73;;;;;;;;;;4997264;28;20198;-90
2023/01/30 05:45:04;;;;;;;9.60;3.67;;;;;;;;;;4997342;28;20206;-89
2023/01/30 05:47:32;;;;;;;15.73;5.47;;;;;;;;;;4989377;28;20204;-90
2023/01/30 05:50:01;;;;;;;23.90;7.83;;;;;;;;;;4994400;28;20200;-89
2023/01/30 05:52:29;;;;;;;8.87;3.70;;;;;;;;;;5014234;28;20260;-90
2023/01/30 05:54:58;;;;;;;9.30;4.40;;;;;;;;;;4997324;28;20200;-90
2023/01/30 05:57:27;;;;;;;14.03;4.67;;;;;;;;;;5014455;28;20204;-89
2023/01/30 05:59:56;;;;;;;14.03;4.57;;;;;;;;;;4997479;28;20230;-89
2023/01/30 06:02:24;;;;;;;11.80;6.40;;;;;;;;;;4996744;28;20227;-89
2023/01/30 06:04:53;;;;;;;11.37;4.37;;;;;;;;;;5014340;28;20233;-89
2023/01/30 06:07:21;;;;;;;8.67;3.73;;;;;;;;;;4997082;28;20216;-89
2023/01/30 06:09:50;;;;;;;20.50;6.60;;;;;;;;;;5014890;28;20322;-89
2023/01/30 06:12:18;;;;;;;18.73;6.10;;;;;;;;;;5033274;28;20207;-89
2023/01/30 06:14:48;;;;;;;9.07;1.83;;;;;;;;;;5016583;28;20222;-87
2023/01/30 06:17:16;;;;;;;23.87;5.40;;;;;;;;;;5016066;28;20214;-89
2023/01/30 06:19:45;;;;;;;11.93;4.33;;;;;;;;;;5016135;28;20218;-89
2023/01/30 06:22:13;;;;;;;17.33;4.60;;;;;;;;;;5016482;28;20206;-89
2023/01/30 06:24:42;;;;;;;20.93;5.63;;;;;;;;;;5016024;28;20211;-89
2023/01/30 06:27:10;;;;;;;13.63;4.63;;;;;;;;;;5016176;28;20190;-89
2023/01/30 06:29:38;;;;;;;11.27;3.83;;;;;;;;;;5016095;28;20205;-89
2023/01/30 06:32:09;;;;;;;14.93;4.27;;;;;;;;;;5016387;28;20190;-89
2023/01/30 06:34:37;;;;;;;14.30;3.70;;;;;;;;;;5016116;28;20210;-89
2023/01/30 06:37:06;;;;;;;17.97;7.63;;;;;;;;;;5033296;28;20195;-89
2023/01/30 06:39:34;;;;;;;19.53;4.03;;;;;;;;;;5033356;28;20203;-89
2023/01/30 06:42:03;;;;;;;12.90;4.03;;;;;;;;;;5015887;28;20200;-89
2023/01/30 06:44:31;;;;;;;10.97;3.70;;;;;;;;;;5016531;28;20194;-89
2023/01/30 06:46:59;;;;;;;12.67;4.40;;;;;;;;;;5032048;28;20299;-89
2023/01/30 06:49:29;;;;;;;8.87;3.13;;;;;;;;;;5015994;28;20307;-88
2023/01/30 06:51:58;;;;;;;16.80;5.23;;;;;;;;;;5033169;28;20197;-89
2023/01/30 06:54:26;;;;;;;16.10;5.73;;;;;;;;;;5033510;28;20210;-88
2023/01/30 06:56:55;;;;;;;19.97;6.13;;;;;;;;;;5033755;28;20206;-88
2023/01/30 06:59:23;;;;;;;10.70;3.43;;;;;;;;;;5016135;28;20217;-88
2023/01/30 07:01:53;;;;;;;10.13;4.37;;;;;;;;;;5015243;28;20219;-87
2023/01/30 07:04:21;;;;;;;9.27;3.00;;;;;;;;;;5015799;28;20325;-86
2023/01/30 07:06:51;;;;;;;13.93;4.40;;;;;;;;;;5015758;28;20254;-86
2023/01/30 07:09:21;;;;;;;11.00;3.47;;;;;;;;;;5015525;28;20239;-87
2023/01/30 07:11:50;;;;;;;14.83;5.00;;;;;;;;;;5016142;28;20210;-87
2023/01/30 07:14:18;;;;;;;9.33;3.87;;;;;;;;;;5015682;28;20240;-87
2023/01/30 07:16:46;;;;;;;11.10;3.57;;;;;;;;;;5015537;28;20249;-87
2023/01/30 07:19:15;;;;;;;12.27;4.40;;;;;;;;;;5016038;28;20206;-87
2023/01/30 07:21:43;;;;;;;14.70;6.53;;;;;;;;;;5015470;28;20230;-87
2023/01/30 07:24:13;;;;;;;10.70;4.27;;;;;;;;;;5017492;28;20208;-88
2023/01/30 07:26:42;;;;;;;12.90;4.27;;;;;;;;;;5036556;28;20261;-88
2023/01/30 07:29:10;;;;;;;12.97;3.67;;;;;;;;;;5036788;28;20207;-87
2023/01/30 07:31:39;;;;;;;7.47;3.00;;;;;;;;;;5019109;28;20240;-88
2023/01/30 07:34:08;;;;;;;15.70;4.73;;;;;;;;;;5036759;28;20201;-87
2023/01/30 07:36:36;;;;;;;11.83;3.83;;;;;;;;;;5018611;28;20219;-87
2023/01/30 07:39:07;;;;;;;10.00;4.13;;;;;;;;;;5018776;28;20227;-87
2023/01/30 07:41:36;;;;;;;10.93;4.23;;;;;;;;;;5018843;28;20222;-87
2023/01/30 07:44:06;;;;;;;14.63;5.43;;;;;;;;;;5019175;28;20202;-87
2023/01/30 07:46:35;;;;;;;23.93;7.00;;;;;;;;;;5018903;28;20251;-88
2023/01/30 07:49:03;;;;;;;10.70;4.50;;;;;;;;;;5018758;28;20262;-87
2023/01/30 07:51:33;;;;;;;13.70;4.07;;;;;;;;;;5019322;28;20210;-83
2023/01/30 07:54:02;;;;;;;9.10;2.83;;;;;;;;;;5019140;28;20202;-88
2023/01/30 07:56:31;;;;;;;14.87;5.17;;;;;;;;;;5018370;28;20199;-89
2023/01/30 07:59:01;;;;;;;11.70;3.77;;;;;;;;;;5018682;28;20206;-91
2023/01/30 08:01:29;;;;;;;15.50;4.17;;;;;;;;;;5018436;28;20219;-89
2023/01/30 08:03:59;;;;;;;10.60;3.80;;;;;;;;;;5018393;28;20262;-89
2023/01/30 08:06:27;;;;;;;16.47;4.27;;;;;;;;;;5035662;28;20199;-90
2023/01/30 08:08:55;;;;;;;12.77;4.10;;;;;;;;;;5018220;28;20294;-89
2023/01/30 08:11:24;;;;;;;9.43;4.30;;;;;;;;;;5018117;28;20226;-89
2023/01/30 08:13:52;;;;;;;5.73;2.43;;;;;;;;;;5018578;28;20212;-89
2023/01/30 08:16:22;;;;;;;22.67;5.43;;;;;;;;;;5018400;28;20209;-89
2023/01/30 08:18:51;;;;;;;16.60;4.13;;;;;;;;;;5018478;28;20199;-91
2023/01/30 08:21:19;;;;;;;10.30;4.53;;;;;;;;;;5018065;28;20219;-90
2023/01/30 08:23:48;;;;;;;9.73;3.43;;;;;;;;;;5017879;28;20234;-90
2023/01/30 08:26:17;;;;;;;12.50;4.00;;;;;;;;;;5035694;28;20265;-90
2023/01/30 08:28:46;;;;;;;6.27;3.87;;;;;;;;;;5017983;28;20238;-89
2023/01/30 08:31:15;;;;;;;15.00;5.17;;;;;;;;;;5017892;28;20295;-90
2023/01/30 08:33:45;;;;;;;12.20;4.23;;;;;;;;;;5018173;28;20210;-90
2023/01/30 08:36:14;;;;;;;18.07;4.03;;;;;;;;;;5017993;28;20225;-90
2023/01/30 08:38:42;;;;;;;17.80;5.63;;;;;;;;;;5018045;28;20310;-90
2023/01/30 08:41:11;;;;;;;17.10;5.10;;;;;;;;;;5034992;28;20223;-90
2023/01/30 08:43:39;;;;;;;17.50;4.53;;;;;;;;;;5035176;28;20203;-90
2023/01/30 08:46:08;;;;;;;7.73;2.97;;;;;;;;;;5035418;28;20209;-88
2023/01/30 08:48:39;;;;;;;18.67;5.27;;;;;;;;;;5017795;28;20230;-88
2023/01/30 08:51:18;;;;;;;9.07;3.30;;;;;;;;;;5017751;28;20226;-89
2023/01/30 08:53:47;;;;;;;11.80;5.63;;;;;;;;;;5017901;28;20196;-88
2023/01/30 08:56:15;;;;;;;13.90;4.40;;;;;;;;;;5017213;28;20200;-89
2023/01/30 08:58:45;;;;;;;10.57;3.50;;;;;;;;;;5017391;28;20242;-89
2023/01/30 09:01:17;;;;;;;16.03;5.37;;;;;;;;;;5034579;28;20227;-89
2023/01/30 09:03:46;;;;;;;11.20;3.83;;;;;;;;;;5015849;28;20223;-90
2023/01/30 09:06:15;;;;;;;17.23;5.07;;;;;;;;;;5023661;28;20213;-88
2023/01/30 09:08:45;;;;;;;8.47;3.27;;;;;;;;;;5020024;28;20244;-90
2023/01/30 09:11:13;;;;;;;18.80;5.27;;;;;;;;;;5005453;28;20227;-89
2023/01/30 09:13:42;;;;;;;15.27;5.20;;;;;;;;;;5006552;28;20357;-89
2023/01/30 09:16:10;;;;;;;16.67;3.80;;;;;;;;;;5029074;28;20295;-91
2023/01/30 09:18:40;;;;;;;9.13;3.20;;;;;;;;;;5023483;28;20290;-92
2023/01/30 09:21:09;;;;;;;13.07;6.20;;;;;;;;;;5012361;28;20228;-93
2023/01/30 09:23:38;;;;;;;12.43;4.47;;;;;;;;;;5012560;28;20227;-94
2023/01/30 09:26:08;;;;;;;14.53;4.77;;;;;;;;;;5018656;28;20200;-90
2023/01/30 09:28:37;;;;;;;16.57;5.17;;;;;;;;;;5025269;28;20298;-94
2023/01/30 09:31:06;;;;;;;10.87;4.63;;;;;;;;;;5017729;28;20209;-89
2023/01/30 09:33:35;;;;;;;11.30;3.97;;;;;;;;;;5018661;28;20209;-88
2023/01/30 09:36:04;;;;;;;12.90;4.67;;;;;;;;;;5008587;28;20208;-89
2023/01/30 09:38:32;;;;;;;15.93;6.17;;;;;;;;;;5019857;28;20203;-90
2023/01/30 09:41:08;;;;;;;11.40;4.67;;;;;;;;;;5006840;28;20229;-90
2023/01/30 09:43:44;;;;;;;16.20;4.47;;;;;;;;;;5034646;28;20202;-89
2023/01/30 09:46:17;;;;;;;9.03;3.93;;;;;;;;;;5029725;28;20214;-90
2023/01/30 09:48:53;;;;;;;6.40;2.50;;;;;;;;;;5027134;28;20211;-88
2023/01/30 09:51:41;;;;;;;12.53;4.40;;;;;;;;;;5028785;28;20199;-89
2023/01/30 09:54:23;;;;;;;27.57;5.07;;;;;;;;;;5010977;28;20205;-89
2023/01/30 09:57:02;;;;;;;10.93;4.27;;;;;;;;;;5017840;28;20203;-91
2023/01/30 09:59:36;;;;;;;11.07;5.00;;;;;;;;;;5013699;28;20246;-89
2023/01/30 10:02:14;;;;;;;9.03;4.13;;;;;;;;;;5025905;28;20298;-89
2023/01/30 10:04:45;;;;;;;15.70;6.17;;;;;;;;;;5013875;28;20642;-90
2023/01/30 10:07:33;;;;;;;18.00;5.40;;;;;;;;;;5010211;28;20315;-91
2023/01/30 10:10:08;;;;;;;14.03;4.97;;;;;;;;;;5007071;28;20269;-91
2023/01/30 10:12:42;;;;;;;20.43;5.23;;;;;;;;;;4992087;28;20286;-89
2023/01/30 10:15:30;;;;;;;20.17;5.37;;;;;;;;;;5003381;28;20264;-89
2023/01/30 10:18:07;;;;;;;21.30;6.97;;;;;;;;;;4993035;28;20231;-89
2023/01/30 10:20:42;;;;;;;16.87;5.23;;;;;;;;;;4987164;28;20215;-89
2023/01/30 10:23:19;;;;;;;9.27;4.10;;;;;;;;;;4993873;28;20221;-90
2023/01/30 10:25:51;;;;;;;17.20;5.77;;;;;;;;;;4988986;28;20219;-87
2023/01/30 10:28:23;;;;;;;11.23;4.50;;;;;;;;;;5007493;28;20199;-86
2023/01/30 10:30:55;;;;;;;9.87;5.73;;;;;;;;;;5005633;28;20191;-84
2023/01/30 10:33:27;;;;;;;14.63;4.03;;;;;;;;;;4989462;28;20206;-82
2023/01/30 10:36:00;;;;;;;12.37;3.73;;;;;;;;;;4979065;28;20209;-82
2023/01/30 10:38:30;;;;;;;10.97;3.47;;;;;;;;;;5006366;28;20482;-82
2023/01/30 10:41:04;;;;;;;15.00;4.93;;;;;;;;;;4995596;28;20199;-82
2023/01/30 10:43:35;;;;;;;5.10;2.47;;;;;;;;;;4992525;28;20224;-84
2023/01/30 10:46:11;;;;;;;40.37;3.87;;;;;;;;;;5009793;28;20203;-83
2023/01/30 10:48:49;;;;;;;17.23;4.40;;;;;;;;;;4998250;28;20217;-84
2023/01/30 10:51:23;;;;;;;10.13;4.67;;;;;;;;;;5009525;28;20290;-84
2023/01/30 10:53:54;;;;;;;16.03;4.73;;;;;;;;;;4999485;28;20199;-82
2023/01/30 10:56:26;;;;;;;15.27;5.27;;;;;;;;;;4988589;28;20231;-81
2023/01/30 10:59:01;;;;;;;8.33;4.03;;;;;;;;;;5017904;28;20215;-83
2023/01/30 11:01:33;;;;;;;19.60;4.83;;;;;;;;;;5008141;28;20294;-83
2023/01/30 11:04:05;;;;;;;14.17;4.20;;;;;;;;;;4998252;28;20243;-83
2023/01/30 11:06:37;;;;;;;13.17;5.20;;;;;;;;;;5000866;28;20196;-83
2023/01/30 11:09:07;;;;;;;13.47;5.60;;;;;;;;;;5022102;28;20239;-84
2023/01/30 11:11:43;;;;;;;15.90;4.80;;;;;;;;;;5004691;28;20283;-82
2023/01/30 11:14:12;;;;;;;12.93;4.23;;;;;;;;;;4994528;28;20282;-82
2023/01/30 11:16:47;;;;;;;13.70;3.80;;;;;;;;;;4994068;28;20310;-83
2023/01/30 11:19:16;;;;;;;17.83;6.10;;;;;;;;;;4991370;28;20213;-84
2023/01/30 11:21:50;;;;;;;14.60;5.37;;;;;;;;;;4996717;28;20203;-83
2023/01/30 11:24:20;;;;;;;15.90;5.77;;;;;;;;;;4992815;28;20221;-83
2023/01/30 11:26:49;;;;;;;23.47;4.13;;;;;;;;;;5010418;28;20209;-83
2023/01/30 11:29:26;;;;;;;11.67;4.60;;;;;;;;;;4990783;28;20209;-85
2023/01/30 11:31:56;;;;;;;12.27;5.63;;;;;;;;;;4990989;28;20204;-84
2023/01/30 11:34:26;;;;;;;14.23;4.83;;;;;;;;;;4997953;28;20200;-83
2023/01/30 11:37:12;;;;;;;20.03;5.90;;;;;;;;;;4990490;28;20212;-83
2023/01/30 11:39:48;;;;;;;20.63;6.00;;;;;;;;;;4991471;28;20205;-82
2023/01/30 11:42:19;;;;;;;17.73;4.90;;;;;;;;;;4991921;28;20203;-84
2023/01/30 11:44:55;;;;;;;9.67;3.70;;;;;;;;;;5011367;28;20218;-82
2023/01/30 11:47:43;;;;;;;23.70;7.60;;;;;;;;;;4994667;28;20197;-81
2023/01/30 11:50:27;;;;;;;11.50;4.73;;;;;;;;;;5007157;28;20258;-84
2023/01/30 11:53:02;;;;;;;15.33;4.87;;;;;;;;;;5000197;28;20209;-81
2023/01/30 11:55:32;;;;;;;12.53;4.40;;;;;;;;;;4982170;28;20209;-83
2023/01/30 11:58:02;;;;;;;17.20;5.13;;;;;;;;;;4974586;28;20224;-83
2023/01/30 12:00:38;;;;;;;17.43;5.60;;;;;;;;;;4997821;28;20291;-85
2023/01/30 12:03:11;;;;;;;15.93;5.30;;;;;;;;;;4983818;28;20259;-83
2023/01/30 12:05:41;;;;;;;13.07;3.73;;;;;;;;;;4986477;28;20274;-81
2023/01/30 12:08:14;;;;;;;10.97;4.37;;;;;;;;;;4989703;28;20254;-83
2023/01/30 12:10:44;;;;;;;19.83;6.43;;;;;;;;;;5005652;28;20233;-83
2023/01/30 12:13:17;;;;;;;8.80;3.50;;;;;;;;;;5023322;28;20203;-84
2023/01/30 12:15:47;;;;;;;14.47;4.47;;;;;;;;;;5008319;28;20251;-82
2023/01/30 12:18:21;;;;;;;20.47;5.67;;;;;;;;;;5005705;28;20300;-82
2023/01/30 12:20:51;;;;;;;4.93;3.37;;;;;;;;;;5010886;28;20235;-82
2023/01/30 12:23:24;;;;;;;13.10;4.47;;;;;;;;;;5010397;28;20269;-82
2023/01/30 12:25:57;;;;;;;9.40;2.87;;;;;;;;;;5005585;28;20213;-83
2023/01/30 12:28:30;;;;;;;9.20;3.43;;;;;;;;;;5023634;28;20235;-83
2023/01/30 12:31:02;;;;;;;7.70;2.63;;;;;;;;;;5011954;28;20250;-83
2023/01/30 12:33:34;;;;;;;14.47;5.23;;;;;;;;;;5014265;28;20216;-82
2023/01/30 12:36:11;;;;;;;11.97;1.93;;;;;;;;;;5008971;28;20296;-82
2023/01/30 12:38:53;;;;;;;15.67;4.40;;;;;;;;;;5008099;28;20225;-83
2023/01/30 12:41:39;;;;;;;12.20;4.10;;;;;;;;;;5009549;28;20206;-84
2023/01/30 12:44:13;;;;;;;19.67;5.50;;;;;;;;;;5022094;28;20225;-84
2023/01/30 12:46:49;;;;;;;10.57;4.53;;;;;;;;;;5004819;28;20216;-83
2023/01/30 12:49:28;;;;;;;21.27;6.23;;;;;;;;;;5009581;28;20206;-83
2023/01/30 12:52:03;;;;;;;12.50;3.87;;;;;;;;;;5009954;28;20204;-83
2023/01/30 12:54:39;;;;;;;17.53;5.90;;;;;;;;;;5007398;28;20291;-82
2023/01/30 12:57:14;;;;;;;14.93;5.60;;;;;;;;;;5013515;28;20214;-84
2023/01/30 12:59:49;;;;;;;11.70;3.30;;;;;;;;;;5022977;28;20267;-82
2023/01/30 13:02:25;;;;;;;18.10;5.57;;;;;;;;;;5003031;28;20232;-84
2023/01/30 13:05:03;;;;;;;10.03;5.70;;;;;;;;;;5001987;28;20254;-84
2023/01/30 13:07:37;;;;;;;16.23;6.43;;;;;;;;;;5004350;28;20244;-82
2023/01/30 13:10:09;;;;;;;15.23;4.40;;;;;;;;;;5020225;28;20328;-82
2023/01/30 13:12:41;;;;;;;16.60;4.37;;;;;;;;;;5004665;28;20207;-83
2023/01/30 13:15:16;;;;;;;16.23;4.93;;;;;;;;;;5004188;28;20200;-84
2023/01/30 13:17:59;;;;;;;13.90;4.30;;;;;;;;;;5002999;28;20228;-81
2023/01/30 13:20:37;;;;;;;17.90;4.83;;;;;;;;;;5003702;28;20228;-81
2023/01/30 13:23:11;;;;;;;22.83;5.07;;;;;;;;;;5012459;28;20204;-84
2023/01/30 13:25:43;;;;;;;4.73;3.40;;;;;;;;;;5025215;28;20210;-81
2023/01/30 13:28:13;;;;;;;9.23;4.73;;;;;;;;;;5018855;28;20212;-83
2023/01/30 13:30:42;;;;;;;7.47;3.47;;;;;;;;;;5008568;28;20200;-81
2023/01/30 13:33:13;;;;;;;13.90;4.40;;;;;;;;;;5023029;28;20221;-85
2023/01/30 13:35:46;;;;;;;19.60;5.30;;;;;;;;;;5004546;28;20209;-84
2023/01/30 13:38:18;;;;;;;15.87;4.60;;;;;;;;;;5024092;28;20213;-84
2023/01/30 13:40:49;;;;;;;17.37;5.00;;;;;;;;;;5021377;28;20189;-85
2023/01/30 13:43:22;;;;;;;23.90;6.13;;;;;;;;;;5003037;28;20279;-85
2023/01/30 13:45:52;;;;;;;24.63;6.07;;;;;;;;;;5006533;28;20233;-85
2023/01/30 13:48:28;;;;;;;13.73;3.93;;;;;;;;;;5003281;28;20226;-85
2023/01/30 13:51:06;;;;;;;5.47;2.97;;;;;;;;;;5007108;28;20255;-87
2023/01/30 13:53:39;;;;;;;12.17;2.67;;;;;;;;;;4987004;28;20189;-85
2023/01/30 13:56:11;;;;;;;6.20;2.93;;;;;;;;;;5021308;28;20211;-87
2023/01/30 13:59:02;;;;;;;17.40;6.73;;;;;;;;;;5021339;28;20205;-85
2023/01/30 14:01:48;;;;;;;9.67;4.87;;;;;;;;;;5005671;28;20215;-86
2023/01/30 14:04:41;;;;;;;2.73;2.20;;;;;;;;;;5028745;28;20244;-87
2023/01/30 14:07:16;;;;;;;15.17;5.20;;;;;;;;;;5010168;28;20206;-87
2023/01/30 14:09:48;;;;;;;22.90;4.90;;;;;;;;;;5023323;28;20332;-88
2023/01/30 14:12:19;;;;;;;14.33;5.70;;;;;;;;;;4989504;28;20211;-86
2023/01/30 14:14:59;;;;;;;17.40;5.07;;;;;;;;;;4989878;28;20197;-85
2023/01/30 14:17:28;;;;;;;15.37;4.80;;;;;;;;;;5010181;28;20216;-84
2023/01/30 14:20:01;;;;;;;13.47;3.47;;;;;;;;;;5009558;28;20201;-85
2023/01/30 14:22:34;;;;;;;15.30;5.50;;;;;;;;;;4990283;28;20291;-88
2023/01/30 14:25:34;;;;;;;12.63;4.20;;;;;;;;;;5007730;28;20247;-87
2023/01/30 14:28:21;;;;;;;14.30;4.80;;;;;;;;;;4989238;28;20212;-87
2023/01/30 14:30:51;;;;;;;15.47;3.90;;;;;;;;;;4992729;28;20211;-87
2023/01/30 14:33:33;;;;;;;13.17;3.17;;;;;;;;;;5004374;28;20200;-88
2023/01/30 14:36:20;;;;;;;11.80;3.03;;;;;;;;;;5001858;28;20197;-87
2023/01/30 14:38:57;;;;;;;15.73;4.93;;;;;;;;;;5011916;28;20205;-86
2023/01/30 14:41:26;;;;;;;9.33;4.30;;;;;;;;;;5007628;28;20216;-89
2023/01/30 14:43:55;;;;;;;11.33;4.17;;;;;;;;;;4996050;28;20207;-86
2023/01/30 14:46:42;;;;;;;19.10;5.23;;;;;;;;;;4991099;28;20201;-86
2023/01/30 14:49:28;;;;;;;13.23;3.37;;;;;;;;;;4995579;28;20272;-87
2023/01/30 14:51:57;;;;;;;14.80;5.07;;;;;;;;;;5004522;28;20204;-83
2023/01/30 14:54:36;;;;;;;20.00;5.57;;;;;;;;;;4994781;28;20215;-86
2023/01/30 14:57:31;;;;;;;14.97;6.07;;;;;;;;;;4995868;28;20205;-85
2023/01/30 15:00:02;;;;;;;10.33;4.43;;;;;;;;;;4986650;28;20204;-85
2023/01/30 15:02:47;;;;;;;13.70;4.07;;;;;;;;;;4991359;28;20221;-84
2023/01/30 15:05:18;;;;;;;15.07;3.27;;;;;;;;;;5001673;28;20220;-85
2023/01/30 15:07:50;;;;;;;9.00;4.93;;;;;;;;;;4993560;28;20205;-84